sensor_id;sensor_type;location;lat;lon;timestamp;P1;durP1;ratioP1;P2;durP2;ratioP2
1471;SDS011;963;42.644;23.336;2023-06-04T00:01:07;6.73;;;5.50;;
1471;SDS011;963;42.644;23.336;2023-06-04T00:03:33;6.93;;;5.87;;
1471;SDS011;963;42.644;23.336;2023-06-04T00:05:59;5.90;;;5.30;;
1471;SDS011;963;42.644;23.336;2023-06-04T00:08:25;5.87;;;5.30;;
1471;SDS011;963;42.644;23.336;2023-06-04T00:10:50;7.10;;;5.90;;
1471;SDS011;963;42.644;23.336;2023-06-04T00:13:16;9.30;;;6.60;;
1471;SDS011;963;42.644;23.336;2023-06-04T00:15:42;7.93;;;7.00;;
1471;SDS011;963;42.644;23.336;2023-06-04T00:18:07;7.73;;;6.60;;
1471;SDS011;963;42.644;23.336;2023-06-04T00:20:33;9.00;;;6.20;;
1471;SDS011;963;42.644;23.336;2023-06-04T00:22:58;9.40;;;6.27;;
1471;SDS011;963;42.644;23.336;2023-06-04T00:25:23;7.70;;;6.00;;
1471;SDS011;963;42.644;23.336;2023-06-04T00:27:49;6.80;;;6.10;;
1471;SDS011;963;42.644;23.336;2023-06-04T00:30:14;7.47;;;5.83;;
1471;SDS011;963;42.644;23.336;2023-06-04T00:32:40;8.60;;;6.70;;
1471;SDS011;963;42.644;23.336;2023-06-04T00:35:06;8.40;;;6.63;;
1471;SDS011;963;42.644;23.336;2023-06-04T00:37:31;9.50;;;6.50;;
1471;SDS011;963;42.644;23.336;2023-06-04T00:39:57;7.47;;;6.40;;
1471;SDS011;963;42.644;23.336;2023-06-04T00:42:23;10.43;;;7.07;;
1471;SDS011;963;42.644;23.336;2023-06-04T00:44:49;10.57;;;6.90;;
1471;SDS011;963;42.644;23.336;2023-06-04T00:47:15;8.23;;;6.30;;
1471;SDS011;963;42.644;23.336;2023-06-04T00:49:41;11.37;;;7.63;;
1471;SDS011;963;42.644;23.336;2023-06-04T00:52:11;7.90;;;6.97;;
1471;SDS011;963;42.644;23.336;2023-06-04T00:54:39;7.00;;;5.37;;
1471;SDS011;963;42.644;23.336;2023-06-04T00:57:05;5.43;;;4.57;;
1471;SDS011;963;42.644;23.336;2023-06-04T00:59:32;5.50;;;4.60;;
1471;SDS011;963;42.644;23.336;2023-06-04T01:02:03;7.87;;;5.00;;
1471;SDS011;963;42.644;23.336;2023-06-04T01:07:03;6.23;;;5.40;;
1471;SDS011;963;42.644;23.336;2023-06-04T01:09:32;5.80;;;4.23;;
1471;SDS011;963;42.644;23.336;2023-06-04T01:11:58;5.93;;;4.63;;
1471;SDS011;963;42.644;23.336;2023-06-04T01:14:24;6.37;;;4.80;;
1471;SDS011;963;42.644;23.336;2023-06-04T01:16:58;5.30;;;4.17;;
1471;SDS011;963;42.644;23.336;2023-06-04T01:19:39;7.20;;;4.80;;
1471;SDS011;963;42.644;23.336;2023-06-04T01:22:32;7.67;;;4.10;;
1471;SDS011;963;42.644;23.336;2023-06-04T01:25:03;4.93;;;4.43;;
1471;SDS011;963;42.644;23.336;2023-06-04T01:27:31;5.13;;;4.63;;
1471;SDS011;963;42.644;23.336;2023-06-04T01:29:57;5.53;;;4.70;;
1471;SDS011;963;42.644;23.336;2023-06-04T01:32:25;5.43;;;4.57;;
1471;SDS011;963;42.644;23.336;2023-06-04T01:34:51;6.27;;;5.67;;
1471;SDS011;963;42.644;23.336;2023-06-04T01:37:17;6.93;;;6.10;;
1471;SDS011;963;42.644;23.336;2023-06-04T01:39:43;7.70;;;6.80;;
1471;SDS011;963;42.644;23.336;2023-06-04T01:42:09;8.23;;;6.73;;
1471;SDS011;963;42.644;23.336;2023-06-04T01:44:35;10.07;;;7.27;;
1471;SDS011;963;42.644;23.336;2023-06-04T01:47:00;8.40;;;7.50;;
1471;SDS011;963;42.644;23.336;2023-06-04T01:49:26;9.83;;;7.10;;
1471;SDS011;963;42.644;23.336;2023-06-04T01:51:52;9.53;;;8.50;;
1471;SDS011;963;42.644;23.336;2023-06-04T01:54:17;11.03;;;8.73;;
1471;SDS011;963;42.644;23.336;2023-06-04T01:56:43;10.63;;;8.20;;
1471;SDS011;963;42.644;23.336;2023-06-04T01:59:08;8.50;;;7.47;;
1471;SDS011;963;42.644;23.336;2023-06-04T02:01:36;8.33;;;7.53;;
1471;SDS011;963;42.644;23.336;2023-06-04T02:04:02;5.70;;;5.10;;
1471;SDS011;963;42.644;23.336;2023-06-04T02:06:28;5.80;;;5.20;;
1471;SDS011;963;42.644;23.336;2023-06-04T02:08:54;6.10;;;5.43;;
1471;SDS011;963;42.644;23.336;2023-06-04T02:11:20;5.50;;;4.27;;
1471;SDS011;963;42.644;23.336;2023-06-04T02:13:45;4.70;;;4.20;;
1471;SDS011;963;42.644;23.336;2023-06-04T02:16:11;4.60;;;3.90;;
1471;SDS011;963;42.644;23.336;2023-06-04T02:18:36;4.63;;;3.63;;
1471;SDS011;963;42.644;23.336;2023-06-04T02:21:02;6.70;;;3.40;;
1471;SDS011;963;42.644;23.336;2023-06-04T02:23:27;3.87;;;3.50;;
1471;SDS011;963;42.644;23.336;2023-06-04T02:25:53;6.67;;;3.60;;
1471;SDS011;963;42.644;23.336;2023-06-04T02:28:18;3.60;;;3.10;;
1471;SDS011;963;42.644;23.336;2023-06-04T02:30:44;5.47;;;3.47;;
1471;SDS011;963;42.644;23.336;2023-06-04T02:33:13;4.27;;;3.80;;
1471;SDS011;963;42.644;23.336;2023-06-04T02:35:39;3.70;;;3.30;;
1471;SDS011;963;42.644;23.336;2023-06-04T02:38:06;4.27;;;3.60;;
1471;SDS011;963;42.644;23.336;2023-06-04T02:40:32;4.27;;;3.87;;
1471;SDS011;963;42.644;23.336;2023-06-04T02:42:57;6.57;;;3.90;;
1471;SDS011;963;42.644;23.336;2023-06-04T02:45:23;3.53;;;3.23;;
1471;SDS011;963;42.644;23.336;2023-06-04T02:47:48;5.07;;;3.90;;
1471;SDS011;963;42.644;23.336;2023-06-04T02:50:14;4.30;;;3.53;;
1471;SDS011;963;42.644;23.336;2023-06-04T02:52:43;4.00;;;3.60;;
1471;SDS011;963;42.644;23.336;2023-06-04T02:55:09;5.10;;;4.20;;
1471;SDS011;963;42.644;23.336;2023-06-04T02:57:37;5.77;;;3.73;;
1471;SDS011;963;42.644;23.336;2023-06-04T03:00:04;6.37;;;3.03;;
1471;SDS011;963;42.644;23.336;2023-06-04T03:02:37;4.23;;;3.40;;
1471;SDS011;963;42.644;23.336;2023-06-04T03:05:13;4.13;;;3.27;;
1471;SDS011;963;42.644;23.336;2023-06-04T03:07:40;4.03;;;3.63;;
1471;SDS011;963;42.644;23.336;2023-06-04T03:10:08;4.90;;;3.23;;
1471;SDS011;963;42.644;23.336;2023-06-04T03:12:37;4.10;;;3.37;;
1471;SDS011;963;42.644;23.336;2023-06-04T03:15:03;3.40;;;3.03;;
1471;SDS011;963;42.644;23.336;2023-06-04T03:17:30;4.33;;;3.73;;
1471;SDS011;963;42.644;23.336;2023-06-04T03:19:56;4.17;;;3.17;;
1471;SDS011;963;42.644;23.336;2023-06-04T03:22:21;3.80;;;3.40;;
1471;SDS011;963;42.644;23.336;2023-06-04T03:24:47;4.57;;;3.90;;
1471;SDS011;963;42.644;23.336;2023-06-04T03:27:13;4.87;;;3.30;;
1471;SDS011;963;42.644;23.336;2023-06-04T03:29:38;4.00;;;3.60;;
1471;SDS011;963;42.644;23.336;2023-06-04T03:32:03;5.37;;;3.23;;
1471;SDS011;963;42.644;23.336;2023-06-04T03:34:29;4.13;;;3.17;;
1471;SDS011;963;42.644;23.336;2023-06-04T03:36:58;3.47;;;3.17;;
1471;SDS011;963;42.644;23.336;2023-06-04T03:39:25;3.83;;;3.40;;
1471;SDS011;963;42.644;23.336;2023-06-04T03:41:50;3.97;;;3.57;;
1471;SDS011;963;42.644;23.336;2023-06-04T03:44:16;4.80;;;3.70;;
1471;SDS011;963;42.644;23.336;2023-06-04T03:46:42;4.27;;;3.83;;
1471;SDS011;963;42.644;23.336;2023-06-04T03:49:12;5.00;;;3.10;;
1471;SDS011;963;42.644;23.336;2023-06-04T03:51:38;5.77;;;3.83;;
1471;SDS011;963;42.644;23.336;2023-06-04T03:54:05;4.70;;;3.90;;
1471;SDS011;963;42.644;23.336;2023-06-04T03:56:30;4.53;;;3.90;;
1471;SDS011;963;42.644;23.336;2023-06-04T03:58:56;3.87;;;3.40;;
1471;SDS011;963;42.644;23.336;2023-06-04T04:01:22;5.63;;;3.33;;
1471;SDS011;963;42.644;23.336;2023-06-04T04:03:51;4.53;;;3.73;;
1471;SDS011;963;42.644;23.336;2023-06-04T04:06:17;4.00;;;3.60;;
1471;SDS011;963;42.644;23.336;2023-06-04T04:08:43;4.67;;;3.37;;
1471;SDS011;963;42.644;23.336;2023-06-04T04:11:12;4.43;;;3.90;;
1471;SDS011;963;42.644;23.336;2023-06-04T04:13:38;4.47;;;3.37;;
1471;SDS011;963;42.644;23.336;2023-06-04T04:16:03;4.40;;;3.77;;
1471;SDS011;963;42.644;23.336;2023-06-04T04:18:32;5.10;;;4.23;;
1471;SDS011;963;42.644;23.336;2023-06-04T04:20:58;4.50;;;4.10;;
1471;SDS011;963;42.644;23.336;2023-06-04T04:23:24;7.37;;;4.07;;
1471;SDS011;963;42.644;23.336;2023-06-04T04:25:50;7.13;;;4.13;;
1471;SDS011;963;42.644;23.336;2023-06-04T04:28:16;4.70;;;4.20;;
1471;SDS011;963;42.644;23.336;2023-06-04T04:30:42;9.87;;;4.53;;
1471;SDS011;963;42.644;23.336;2023-06-04T04:33:09;6.80;;;4.17;;
1471;SDS011;963;42.644;23.336;2023-06-04T04:35:35;5.90;;;4.40;;
1471;SDS011;963;42.644;23.336;2023-06-04T04:38:01;5.80;;;4.80;;
1471;SDS011;963;42.644;23.336;2023-06-04T04:40:30;9.43;;;4.30;;
1471;SDS011;963;42.644;23.336;2023-06-04T04:42:56;4.53;;;4.13;;
1471;SDS011;963;42.644;23.336;2023-06-04T04:45:23;9.83;;;5.10;;
1471;SDS011;963;42.644;23.336;2023-06-04T04:47:48;5.67;;;5.07;;
1471;SDS011;963;42.644;23.336;2023-06-04T04:50:15;5.40;;;4.90;;
1471;SDS011;963;42.644;23.336;2023-06-04T04:52:41;5.90;;;5.30;;
1471;SDS011;963;42.644;23.336;2023-06-04T04:55:07;5.70;;;5.10;;
1471;SDS011;963;42.644;23.336;2023-06-04T04:57:32;5.37;;;4.87;;
1471;SDS011;963;42.644;23.336;2023-06-04T04:59:58;7.20;;;4.80;;
1471;SDS011;963;42.644;23.336;2023-06-04T05:02:23;6.47;;;4.60;;
1471;SDS011;963;42.644;23.336;2023-06-04T05:04:49;5.57;;;5.07;;
1471;SDS011;963;42.644;23.336;2023-06-04T05:07:14;7.03;;;5.17;;
1471;SDS011;963;42.644;23.336;2023-06-04T05:09:40;5.83;;;5.33;;
1471;SDS011;963;42.644;23.336;2023-06-04T05:12:06;5.60;;;5.10;;
1471;SDS011;963;42.644;23.336;2023-06-04T05:14:32;8.77;;;5.43;;
1471;SDS011;963;42.644;23.336;2023-06-04T05:16:57;7.07;;;5.60;;
1471;SDS011;963;42.644;23.336;2023-06-04T05:19:23;6.50;;;4.97;;
1471;SDS011;963;42.644;23.336;2023-06-04T05:21:49;9.00;;;6.20;;
1471;SDS011;963;42.644;23.336;2023-06-04T05:24:14;9.03;;;6.03;;
1471;SDS011;963;42.644;23.336;2023-06-04T05:26:40;7.27;;;5.90;;
1471;SDS011;963;42.644;23.336;2023-06-04T05:29:06;8.77;;;5.60;;
1471;SDS011;963;42.644;23.336;2023-06-04T05:31:35;9.60;;;6.37;;
1471;SDS011;963;42.644;23.336;2023-06-04T05:34:02;5.97;;;5.20;;
1471;SDS011;963;42.644;23.336;2023-06-04T05:36:29;6.80;;;6.10;;
1471;SDS011;963;42.644;23.336;2023-06-04T05:38:55;7.43;;;5.80;;
1471;SDS011;963;42.644;23.336;2023-06-04T05:41:23;8.10;;;7.40;;
1471;SDS011;963;42.644;23.336;2023-06-04T05:43:49;7.10;;;6.37;;
1471;SDS011;963;42.644;23.336;2023-06-04T05:46:15;7.13;;;6.43;;
1471;SDS011;963;42.644;23.336;2023-06-04T05:48:40;8.97;;;7.13;;
1471;SDS011;963;42.644;23.336;2023-06-04T05:51:06;9.40;;;6.50;;
1471;SDS011;963;42.644;23.336;2023-06-04T05:53:32;7.90;;;6.70;;
1471;SDS011;963;42.644;23.336;2023-06-04T05:55:58;7.27;;;6.17;;
1471;SDS011;963;42.644;23.336;2023-06-04T05:58:23;11.73;;;6.73;;
1471;SDS011;963;42.644;23.336;2023-06-04T06:00:48;9.60;;;7.57;;
1471;SDS011;963;42.644;23.336;2023-06-04T06:03:15;8.03;;;6.63;;
1471;SDS011;963;42.644;23.336;2023-06-04T06:05:41;10.60;;;7.20;;
1471;SDS011;963;42.644;23.336;2023-06-04T06:08:07;9.40;;;7.93;;
1471;SDS011;963;42.644;23.336;2023-06-04T06:10:33;9.53;;;6.90;;
1471;SDS011;963;42.644;23.336;2023-06-04T06:12:58;11.67;;;7.20;;
1471;SDS011;963;42.644;23.336;2023-06-04T06:15:25;12.00;;;7.50;;
1471;SDS011;963;42.644;23.336;2023-06-04T06:17:51;10.63;;;6.80;;
1471;SDS011;963;42.644;23.336;2023-06-04T06:20:17;11.73;;;7.53;;
1471;SDS011;963;42.644;23.336;2023-06-04T06:22:43;9.03;;;7.30;;
1471;SDS011;963;42.644;23.336;2023-06-04T06:25:09;15.33;;;7.23;;
1471;SDS011;963;42.644;23.336;2023-06-04T06:27:38;10.67;;;7.10;;
1471;SDS011;963;42.644;23.336;2023-06-04T06:30:04;9.70;;;6.87;;
1471;SDS011;963;42.644;23.336;2023-06-04T06:32:31;15.10;;;7.03;;
1471;SDS011;963;42.644;23.336;2023-06-04T06:34:56;14.43;;;6.90;;
1471;SDS011;963;42.644;23.336;2023-06-04T06:37:22;8.03;;;6.70;;
1471;SDS011;963;42.644;23.336;2023-06-04T06:39:47;8.40;;;6.60;;
1471;SDS011;963;42.644;23.336;2023-06-04T06:42:12;8.20;;;6.67;;
1471;SDS011;963;42.644;23.336;2023-06-04T06:44:38;7.90;;;6.23;;
1471;SDS011;963;42.644;23.336;2023-06-04T06:47:03;8.83;;;7.00;;
1471;SDS011;963;42.644;23.336;2023-06-04T06:49:29;10.20;;;7.10;;
1471;SDS011;963;42.644;23.336;2023-06-04T06:51:54;7.97;;;7.17;;
1471;SDS011;963;42.644;23.336;2023-06-04T06:54:19;6.80;;;6.10;;
1471;SDS011;963;42.644;23.336;2023-06-04T06:56:47;10.03;;;6.50;;
1471;SDS011;963;42.644;23.336;2023-06-04T06:59:14;8.83;;;6.23;;
1471;SDS011;963;42.644;23.336;2023-06-04T07:01:39;7.13;;;6.27;;
1471;SDS011;963;42.644;23.336;2023-06-04T07:04:05;8.87;;;6.30;;
1471;SDS011;963;42.644;23.336;2023-06-04T07:06:31;11.10;;;6.07;;
1471;SDS011;963;42.644;23.336;2023-06-04T07:08:57;9.97;;;7.27;;
1471;SDS011;963;42.644;23.336;2023-06-04T07:11:22;13.10;;;6.90;;
1471;SDS011;963;42.644;23.336;2023-06-04T07:13:48;8.57;;;6.20;;
1471;SDS011;963;42.644;23.336;2023-06-04T07:16:13;7.83;;;6.80;;
1471;SDS011;963;42.644;23.336;2023-06-04T07:18:39;7.90;;;5.97;;
1471;SDS011;963;42.644;23.336;2023-06-04T07:21:04;7.83;;;6.23;;
1471;SDS011;963;42.644;23.336;2023-06-04T07:23:30;8.00;;;6.30;;
1471;SDS011;963;42.644;23.336;2023-06-04T07:25:55;10.07;;;6.17;;
1471;SDS011;963;42.644;23.336;2023-06-04T07:28:21;7.00;;;6.30;;
1471;SDS011;963;42.644;23.336;2023-06-04T07:30:47;12.20;;;6.43;;
1471;SDS011;963;42.644;23.336;2023-06-04T07:33:13;7.20;;;6.37;;
1471;SDS011;963;42.644;23.336;2023-06-04T07:35:38;8.67;;;7.13;;
1471;SDS011;963;42.644;23.336;2023-06-04T07:38:03;8.00;;;6.97;;
1471;SDS011;963;42.644;23.336;2023-06-04T07:40:29;7.87;;;6.60;;
1471;SDS011;963;42.644;23.336;2023-06-04T07:42:55;7.87;;;7.07;;
1471;SDS011;963;42.644;23.336;2023-06-04T07:45:22;8.53;;;6.97;;
1471;SDS011;963;42.644;23.336;2023-06-04T07:47:47;9.70;;;7.60;;
1471;SDS011;963;42.644;23.336;2023-06-04T07:50:12;8.20;;;7.37;;
1471;SDS011;963;42.644;23.336;2023-06-04T07:52:38;12.20;;;8.20;;
1471;SDS011;963;42.644;23.336;2023-06-04T07:55:03;9.63;;;7.67;;
1471;SDS011;963;42.644;23.336;2023-06-04T07:57:30;10.37;;;8.17;;
1471;SDS011;963;42.644;23.336;2023-06-04T07:59:56;8.70;;;7.70;;
1471;SDS011;963;42.644;23.336;2023-06-04T08:02:22;9.93;;;7.57;;
1471;SDS011;963;42.644;23.336;2023-06-04T08:04:48;11.70;;;8.40;;
1471;SDS011;963;42.644;23.336;2023-06-04T08:07:14;11.20;;;7.60;;
1471;SDS011;963;42.644;23.336;2023-06-04T08:09:39;10.03;;;8.30;;
1471;SDS011;963;42.644;23.336;2023-06-04T08:12:05;12.33;;;8.87;;
1471;SDS011;963;42.644;23.336;2023-06-04T08:14:31;12.10;;;8.87;;
1471;SDS011;963;42.644;23.336;2023-06-04T08:16:57;10.47;;;8.63;;
1471;SDS011;963;42.644;23.336;2023-06-04T08:19:23;9.20;;;7.63;;
1471;SDS011;963;42.644;23.336;2023-06-04T08:21:49;12.63;;;9.00;;
1471;SDS011;963;42.644;23.336;2023-06-04T08:24:15;14.30;;;9.80;;
1471;SDS011;963;42.644;23.336;2023-06-04T08:26:41;12.00;;;9.60;;
1471;SDS011;963;42.644;23.336;2023-06-04T08:29:07;13.97;;;9.80;;
1471;SDS011;963;42.644;23.336;2023-06-04T08:31:32;10.40;;;8.70;;
1471;SDS011;963;42.644;23.336;2023-06-04T08:33:58;11.67;;;9.13;;
1471;SDS011;963;42.644;23.336;2023-06-04T08:36:23;12.03;;;8.20;;
1471;SDS011;963;42.644;23.336;2023-06-04T08:38:49;12.43;;;8.23;;
1471;SDS011;963;42.644;23.336;2023-06-04T08:41:28;12.33;;;9.33;;
1471;SDS011;963;42.644;23.336;2023-06-04T08:43:58;17.23;;;9.23;;
1471;SDS011;963;42.644;23.336;2023-06-04T08:46:26;11.97;;;8.87;;
1471;SDS011;963;42.644;23.336;2023-06-04T08:48:53;11.13;;;9.00;;
1471;SDS011;963;42.644;23.336;2023-06-04T08:51:21;10.57;;;8.70;;
1471;SDS011;963;42.644;23.336;2023-06-04T08:53:47;9.43;;;8.07;;
1471;SDS011;963;42.644;23.336;2023-06-04T08:56:15;9.70;;;7.70;;
1471;SDS011;963;42.644;23.336;2023-06-04T08:58:42;15.10;;;8.80;;
1471;SDS011;963;42.644;23.336;2023-06-04T09:01:08;9.80;;;7.57;;
1471;SDS011;963;42.644;23.336;2023-06-04T09:03:36;9.17;;;7.40;;
1471;SDS011;963;42.644;23.336;2023-06-04T09:06:02;11.07;;;8.20;;
1471;SDS011;963;42.644;23.336;2023-06-04T09:08:31;11.93;;;8.07;;
1471;SDS011;963;42.644;23.336;2023-06-04T09:10:59;10.50;;;7.03;;
1471;SDS011;963;42.644;23.336;2023-06-04T09:13:27;9.53;;;7.30;;
1471;SDS011;963;42.644;23.336;2023-06-04T09:16:02;10.50;;;7.87;;
1471;SDS011;963;42.644;23.336;2023-06-04T09:18:28;9.37;;;7.30;;
1471;SDS011;963;42.644;23.336;2023-06-04T09:21:07;10.47;;;8.10;;
1471;SDS011;963;42.644;23.336;2023-06-04T09:26:11;10.57;;;9.23;;
1471;SDS011;963;42.644;23.336;2023-06-04T09:28:40;10.20;;;8.30;;
1471;SDS011;963;42.644;23.336;2023-06-04T09:31:10;10.63;;;9.63;;
1471;SDS011;963;42.644;23.336;2023-06-04T09:33:45;9.23;;;7.90;;
1471;SDS011;963;42.644;23.336;2023-06-04T09:36:13;12.93;;;9.57;;
1471;SDS011;963;42.644;23.336;2023-06-04T09:38:39;16.20;;;9.23;;
1471;SDS011;963;42.644;23.336;2023-06-04T09:41:10;12.73;;;9.67;;
1471;SDS011;963;42.644;23.336;2023-06-04T09:43:39;12.93;;;10.57;;
1471;SDS011;963;42.644;23.336;2023-06-04T09:46:15;17.10;;;9.93;;
1471;SDS011;963;42.644;23.336;2023-06-04T09:48:42;12.20;;;8.80;;
1471;SDS011;963;42.644;23.336;2023-06-04T09:51:09;12.60;;;8.37;;
1471;SDS011;963;42.644;23.336;2023-06-04T09:53:40;12.23;;;9.73;;
1471;SDS011;963;42.644;23.336;2023-06-04T09:56:06;15.33;;;9.83;;
1471;SDS011;963;42.644;23.336;2023-06-04T09:58:33;11.33;;;9.20;;
1471;SDS011;963;42.644;23.336;2023-06-04T10:01:00;12.77;;;9.30;;
1471;SDS011;963;42.644;23.336;2023-06-04T10:03:31;12.77;;;9.00;;
1471;SDS011;963;42.644;23.336;2023-06-04T10:05:58;12.20;;;9.00;;
1471;SDS011;963;42.644;23.336;2023-06-04T10:08:25;10.37;;;9.30;;
1471;SDS011;963;42.644;23.336;2023-06-04T10:10:55;11.53;;;9.27;;
1471;SDS011;963;42.644;23.336;2023-06-04T10:13:23;9.73;;;8.00;;
1471;SDS011;963;42.644;23.336;2023-06-04T10:15:51;14.40;;;7.90;;
1471;SDS011;963;42.644;23.336;2023-06-04T10:18:18;11.50;;;7.90;;
1471;SDS011;963;42.644;23.336;2023-06-04T10:20:44;11.23;;;8.50;;
1471;SDS011;963;42.644;23.336;2023-06-04T10:23:10;11.43;;;7.80;;
1471;SDS011;963;42.644;23.336;2023-06-04T10:25:37;11.83;;;7.67;;
1471;SDS011;963;42.644;23.336;2023-06-04T10:28:03;9.53;;;7.20;;
1471;SDS011;963;42.644;23.336;2023-06-04T10:30:29;8.50;;;7.60;;
1471;SDS011;963;42.644;23.336;2023-06-04T10:32:58;11.63;;;8.17;;
1471;SDS011;963;42.644;23.336;2023-06-04T10:35:34;10.47;;;8.13;;
1471;SDS011;963;42.644;23.336;2023-06-04T10:38:19;9.80;;;7.57;;
1471;SDS011;963;42.644;23.336;2023-06-04T10:40:46;8.67;;;7.77;;
1471;SDS011;963;42.644;23.336;2023-06-04T10:43:12;8.50;;;7.53;;
1471;SDS011;963;42.644;23.336;2023-06-04T10:45:39;8.73;;;7.83;;
1471;SDS011;963;42.644;23.336;2023-06-04T10:48:08;10.20;;;7.80;;
1471;SDS011;963;42.644;23.336;2023-06-04T10:50:46;11.10;;;8.10;;
1471;SDS011;963;42.644;23.336;2023-06-04T10:53:16;9.40;;;8.30;;
1471;SDS011;963;42.644;23.336;2023-06-04T10:55:44;8.90;;;7.97;;
1471;SDS011;963;42.644;23.336;2023-06-04T10:58:10;7.83;;;7.10;;
1471;SDS011;963;42.644;23.336;2023-06-04T11:00:39;11.57;;;8.70;;
1471;SDS011;963;42.644;23.336;2023-06-04T11:03:07;10.60;;;8.43;;
1471;SDS011;963;42.644;23.336;2023-06-04T11:05:52;8.93;;;8.03;;
1471;SDS011;963;42.644;23.336;2023-06-04T11:08:25;8.60;;;7.60;;
1471;SDS011;963;42.644;23.336;2023-06-04T11:10:55;9.27;;;8.33;;
1471;SDS011;963;42.644;23.336;2023-06-04T11:13:26;39.47;;;33.70;;
1471;SDS011;963;42.644;23.336;2023-06-04T11:15:52;10.23;;;8.80;;
1471;SDS011;963;42.644;23.336;2023-06-04T11:18:18;9.60;;;8.53;;
1471;SDS011;963;42.644;23.336;2023-06-04T11:20:46;9.43;;;8.10;;
1471;SDS011;963;42.644;23.336;2023-06-04T11:23:13;8.80;;;7.90;;
1471;SDS011;963;42.644;23.336;2023-06-04T11:25:40;9.13;;;8.10;;
1471;SDS011;963;42.644;23.336;2023-06-04T11:28:08;10.33;;;9.00;;
1471;SDS011;963;42.644;23.336;2023-06-04T11:30:40;9.70;;;8.47;;
1471;SDS011;963;42.644;23.336;2023-06-04T11:33:06;9.40;;;8.40;;
1471;SDS011;963;42.644;23.336;2023-06-04T11:35:38;10.50;;;9.03;;
1471;SDS011;963;42.644;23.336;2023-06-04T11:38:06;13.97;;;9.20;;
1471;SDS011;963;42.644;23.336;2023-06-04T11:40:31;9.97;;;8.60;;
1471;SDS011;963;42.644;23.336;2023-06-04T11:42:56;9.63;;;8.70;;
1471;SDS011;963;42.644;23.336;2023-06-04T11:45:22;9.40;;;8.40;;
1471;SDS011;963;42.644;23.336;2023-06-04T11:47:54;12.10;;;8.67;;
1471;SDS011;963;42.644;23.336;2023-06-04T11:50:22;12.60;;;8.50;;
1471;SDS011;963;42.644;23.336;2023-06-04T11:52:48;14.00;;;9.37;;
1471;SDS011;963;42.644;23.336;2023-06-04T11:55:14;9.10;;;7.97;;
1471;SDS011;963;42.644;23.336;2023-06-04T11:57:45;9.20;;;8.33;;
1471;SDS011;963;42.644;23.336;2023-06-04T12:00:11;8.93;;;8.03;;
1471;SDS011;963;42.644;23.336;2023-06-04T12:02:38;10.30;;;8.60;;
1471;SDS011;963;42.644;23.336;2023-06-04T12:05:18;8.50;;;7.70;;
1471;SDS011;963;42.644;23.336;2023-06-04T12:07:44;9.60;;;8.70;;
1471;SDS011;963;42.644;23.336;2023-06-04T12:10:11;15.77;;;9.93;;
1471;SDS011;963;42.644;23.336;2023-06-04T12:12:37;10.07;;;9.17;;
1471;SDS011;963;42.644;23.336;2023-06-04T12:15:03;10.50;;;9.40;;
1471;SDS011;963;42.644;23.336;2023-06-04T12:17:30;10.73;;;9.50;;
1471;SDS011;963;42.644;23.336;2023-06-04T12:19:57;10.33;;;9.00;;
1471;SDS011;963;42.644;23.336;2023-06-04T12:22:23;13.70;;;9.97;;
1471;SDS011;963;42.644;23.336;2023-06-04T12:24:50;11.57;;;10.47;;
1471;SDS011;963;42.644;23.336;2023-06-04T12:27:24;13.83;;;10.10;;
1471;SDS011;963;42.644;23.336;2023-06-04T12:30:00;13.90;;;10.80;;
1471;SDS011;963;42.644;23.336;2023-06-04T12:32:27;13.80;;;10.57;;
1471;SDS011;963;42.644;23.336;2023-06-04T12:34:53;14.30;;;10.43;;
1471;SDS011;963;42.644;23.336;2023-06-04T12:37:19;15.37;;;10.80;;
1471;SDS011;963;42.644;23.336;2023-06-04T12:39:46;10.43;;;9.47;;
1471;SDS011;963;42.644;23.336;2023-06-04T12:42:11;10.43;;;9.53;;
1471;SDS011;963;42.644;23.336;2023-06-04T12:44:37;12.10;;;10.83;;
1471;SDS011;963;42.644;23.336;2023-06-04T12:47:05;12.13;;;10.93;;
1471;SDS011;963;42.644;23.336;2023-06-04T12:49:31;15.53;;;10.70;;
1471;SDS011;963;42.644;23.336;2023-06-04T12:51:57;11.83;;;10.73;;
1471;SDS011;963;42.644;23.336;2023-06-04T12:54:22;13.30;;;10.90;;
1471;SDS011;963;42.644;23.336;2023-06-04T12:56:48;11.80;;;10.27;;
1471;SDS011;963;42.644;23.336;2023-06-04T12:59:13;12.10;;;10.67;;
1471;SDS011;963;42.644;23.336;2023-06-04T13:01:39;10.97;;;9.70;;
1471;SDS011;963;42.644;23.336;2023-06-04T13:04:05;14.83;;;10.97;;
1471;SDS011;963;42.644;23.336;2023-06-04T13:06:31;12.63;;;9.20;;
1471;SDS011;963;42.644;23.336;2023-06-04T13:08:56;11.07;;;9.93;;
1471;SDS011;963;42.644;23.336;2023-06-04T13:11:22;12.33;;;10.23;;
1471;SDS011;963;42.644;23.336;2023-06-04T13:13:47;10.40;;;8.50;;
1471;SDS011;963;42.644;23.336;2023-06-04T13:16:13;11.23;;;9.80;;
1471;SDS011;963;42.644;23.336;2023-06-04T13:18:39;10.07;;;9.07;;
1471;SDS011;963;42.644;23.336;2023-06-04T13:21:04;11.43;;;10.20;;
1471;SDS011;963;42.644;23.336;2023-06-04T13:23:29;10.07;;;9.17;;
1471;SDS011;963;42.644;23.336;2023-06-04T13:25:55;10.40;;;9.30;;
1471;SDS011;963;42.644;23.336;2023-06-04T13:28:20;10.57;;;9.20;;
1471;SDS011;963;42.644;23.336;2023-06-04T13:30:46;13.23;;;9.60;;
1471;SDS011;963;42.644;23.336;2023-06-04T13:33:11;12.00;;;9.40;;
1471;SDS011;963;42.644;23.336;2023-06-04T13:35:37;15.10;;;9.47;;
1471;SDS011;963;42.644;23.336;2023-06-04T13:38:04;9.90;;;8.97;;
1471;SDS011;963;42.644;23.336;2023-06-04T13:40:31;11.67;;;8.93;;
1471;SDS011;963;42.644;23.336;2023-06-04T13:42:56;10.43;;;9.20;;
1471;SDS011;963;42.644;23.336;2023-06-04T13:45:22;10.00;;;8.73;;
1471;SDS011;963;42.644;23.336;2023-06-04T13:47:47;9.40;;;8.50;;
1471;SDS011;963;42.644;23.336;2023-06-04T13:50:13;10.00;;;9.00;;
1471;SDS011;963;42.644;23.336;2023-06-04T13:52:39;9.80;;;8.80;;
1471;SDS011;963;42.644;23.336;2023-06-04T13:55:05;10.67;;;9.43;;
1471;SDS011;963;42.644;23.336;2023-06-04T13:57:31;9.43;;;8.57;;
1471;SDS011;963;42.644;23.336;2023-06-04T13:59:56;8.73;;;7.90;;
1471;SDS011;963;42.644;23.336;2023-06-04T14:02:22;9.33;;;7.70;;
1471;SDS011;963;42.644;23.336;2023-06-04T14:04:48;13.63;;;8.90;;
1471;SDS011;963;42.644;23.336;2023-06-04T14:07:18;10.33;;;8.13;;
1471;SDS011;963;42.644;23.336;2023-06-04T14:09:43;9.50;;;8.50;;
1471;SDS011;963;42.644;23.336;2023-06-04T14:12:09;10.10;;;7.70;;
1471;SDS011;963;42.644;23.336;2023-06-04T14:14:34;11.37;;;8.20;;
1471;SDS011;963;42.644;23.336;2023-06-04T14:17:03;10.13;;;8.33;;
1471;SDS011;963;42.644;23.336;2023-06-04T14:19:29;8.70;;;7.90;;
1471;SDS011;963;42.644;23.336;2023-06-04T14:21:55;9.77;;;8.40;;
1471;SDS011;963;42.644;23.336;2023-06-04T14:24:20;9.37;;;8.17;;
1471;SDS011;963;42.644;23.336;2023-06-04T14:26:46;9.40;;;8.50;;
1471;SDS011;963;42.644;23.336;2023-06-04T14:29:12;13.63;;;8.90;;
1471;SDS011;963;42.644;23.336;2023-06-04T14:31:38;9.10;;;8.20;;
1471;SDS011;963;42.644;23.336;2023-06-04T14:34:03;9.10;;;8.30;;
1471;SDS011;963;42.644;23.336;2023-06-04T14:36:29;11.40;;;9.27;;
1471;SDS011;963;42.644;23.336;2023-06-04T14:38:56;10.00;;;8.33;;
1471;SDS011;963;42.644;23.336;2023-06-04T14:41:21;10.00;;;9.00;;
1471;SDS011;963;42.644;23.336;2023-06-04T14:43:47;11.10;;;9.30;;
1471;SDS011;963;42.644;23.336;2023-06-04T14:46:12;10.33;;;8.37;;
1471;SDS011;963;42.644;23.336;2023-06-04T14:48:38;11.17;;;8.83;;
1471;SDS011;963;42.644;23.336;2023-06-04T14:51:03;11.33;;;9.93;;
1471;SDS011;963;42.644;23.336;2023-06-04T14:53:30;9.50;;;8.60;;
1471;SDS011;963;42.644;23.336;2023-06-04T14:55:55;10.50;;;9.20;;
1471;SDS011;963;42.644;23.336;2023-06-04T14:58:21;10.87;;;7.93;;
1471;SDS011;963;42.644;23.336;2023-06-04T15:00:46;10.67;;;9.43;;
1471;SDS011;963;42.644;23.336;2023-06-04T15:03:11;12.53;;;8.90;;
1471;SDS011;963;42.644;23.336;2023-06-04T15:05:37;11.67;;;8.77;;
1471;SDS011;963;42.644;23.336;2023-06-04T15:08:03;10.00;;;8.87;;
1471;SDS011;963;42.644;23.336;2023-06-04T15:10:29;12.67;;;9.07;;
1471;SDS011;963;42.644;23.336;2023-06-04T15:12:55;10.20;;;9.10;;